Hlavní strana
METAR-TAF:

METAR-TAF

Letiště :

Pärnu, Estonsko

zeměpisná šířka: 58-25-09N, zeměpisná délka: 024-28-22E, výška: 14 m

Aktuální stav počasí

Zpráva byla vytvořena před 9 hodinami a 27 minutami, v 13:50 UTC
Jihojihozápadní vítr 6 kt, proměnlivý mezi jihojihovýchodním a západojihozápadním
Teplota 8°C
Vlhkost vzduchu 81%
Tlak 1033 hPa
Viditelnost 10 km a více
Zataženo ve výšce 2500 ft

METAR: EEPU 151350Z 21006KT 160V240 9999 OVC025 08/05 Q1033

Čas: 01:17 (23:17 UTC)


TAF: chybějící

Stav a předpovědi počasí z více než 4 000 letišť (zprávy METAR a TAF).

Červené a žluté tečky na mapě představují dostupné meteorologické stanice.

Když kurzor umístíte na tečku, zobrazí se název stanice.

Pak kliknutím zobrazíte stav a předpověď počasí.

Chcete-li změnit mapu, kliknutím na zelené tlačítko se znaménkem +mapu přiblížíte, kliknutím na zelené tlačítko se znaménkem – mapu oddálíte a kliknutím na zelené šipky přejdete na sousední mapy.


METAR-TAF: